CheckWX is a tool to help pilots better visualize weather data.  It is not intended as a substitute for an official pre-flight weather briefing.

02:28:10 UTC

VTBS TAF
Suvarnabhumi Airport
Bangkok, Thailand
TAF VTBS 222300Z 2300/2406 01008KT 8000 FEW020 BECMG 2302/2304 08010KT 9999 TEMPO 2306/2310 VRB15KT 6000 -TSRA FEW018CB SCT030 BECMG 2312/2314 20008KT

Apr-23@
00:00 UTC

Apr-23 @ 00:00 UTC

Apr-23@
02:00 UTC

Apr-23 @ 02:00 UTC

TAF VTBS 222300Z 2300/2406 01008KT 8000 FEW020

Expired

Wind
  • 010° at 8 KTS
Cloud Levels
  • Few at 2,000' AGL

Apr-23@
02:00 UTC

Apr-23 @ 02:00 UTC

Apr-23@
12:00 UTC

Apr-23 @ 12:00 UTC

BECMG 2302/2304 08010KT 9999

Becoming

Becoming Conditions expected by Tue, Apr 23, 2019 @ 04:00 UTC

Wind
  • 080° at 10 KTS
Cloud Levels
  • Few at 2,000' AGL

Apr-23@
06:00 UTC

Apr-23 @ 06:00 UTC

Apr-23@
10:00 UTC

Apr-23 @ 10:00 UTC

TEMPO 2306/2310 VRB15KT 6000 -TSRA FEW018CB SCT030

Temporary

Temporary Changes expected for less than half the time period

Wind
  • Variable at 15 KTS
Conditions
Light Thunderstorm, Light Rain
Cloud Levels
  • Few at 1,800' AGL
  • Scattered at 3,000' AGL

Apr-23@
12:00 UTC

Apr-23 @ 12:00 UTC

Apr-24@
06:00 UTC

Apr-24 @ 06:00 UTC

BECMG 2312/2314 20008KT

Becoming

Becoming Conditions expected by Tue, Apr 23, 2019 @ 14:00 UTC

Wind
  • 200° at 8 KTS
Cloud Levels
  • Few at 2,000' AGL